Latest Weather Observations for Longerenong

IDV60801

Issued at 10:32 pm EST Sunday 24 July 2016 (issued every 30 minutes, with the page automatically refreshed every 10 minutes)

About weather observations | Map of weather stations | Latest weather observations for VIC | Other Formats
Station Details ID: 079028 Name: LONGERENONG Lat: -36.67 Lon: 142.30 Height: 133.0 m
Data from the previous 72 hours. | See also: Recent months at Longerenong
Date/Time
EST
Temp
°C
App
Temp
°C
Dew
Point
°C
Rel
Hum
%
Delta-T
°C
Wind Press
QNH
hPa
Press
MSL
hPa
Rain since
9am
mm
Dir  Spd
km/h
Gust
km/h
Spd
kts
Gust
kts
24/10:30pm 6.5 4.2 5.9 96 0.3 WNW 7 11 4 6 - - 1.8
24/10:00pm 6.8 4.2 6.2 96 0.3 WNW 9 13 5 7 - - 1.8
24/09:30pm 6.8 4.2 6.1 95 0.3 NW 9 13 5 7 - - 1.6
24/09:00pm 6.8 3.7 5.7 93 0.5 NW 11 15 6 8 - - 1.0
24/08:30pm 6.8 3.7 5.4 91 0.6 NNW 11 17 6 9 - - 0.6
24/08:00pm 6.8 4.4 5.4 91 0.6 WNW 7 13 4 7 - - 0.4
24/07:30pm 6.7 3.9 5.3 91 0.6 NNW 9 13 5 7 - - 0.4
24/07:00pm 6.4 3.9 4.9 90 0.7 NNW 7 11 4 6 - - 0.4
24/06:30pm 7.2 4.1 5.5 89 0.8 NW 11 15 6 8 - - 0.4
24/06:00pm 7.4 2.8 5.7 89 0.8 NW 19 24 10 13 - - 0.4
24/05:30pm 7.8 2.2 5.3 84 1.1 NW 24 33 13 18 - - 0.2
24/05:00pm 8.3 3.1 5.6 83 1.2 NW 22 33 12 18 - - 0.2
24/04:30pm 8.2 2.3 5.7 84 1.1 NW 26 37 14 20 - - 0.2
24/04:00pm 8.2 1.0 5.7 84 1.1 NW 33 43 18 23 - - 0.2
24/03:30pm 8.8 0.9 6.4 85 1.1 NW 37 48 20 26 - - 0.2
24/03:12pm 10.2 1.7 5.2 71 2.3 NNW 39 61 21 33 - - 0.0
24/03:00pm 10.9 2.7 5.0 67 2.7 NNW 37 50 20 27 - - 0.0
24/02:30pm 11.1 4.4 5.4 68 2.6 NNW 30 44 16 24 - - 0.0
24/02:00pm 11.1 4.4 5.6 69 2.6 NNW 30 43 16 23 - - 0.0
24/01:30pm 11.3 4.6 5.8 69 2.6 N 30 39 16 21 - - 0.0
24/01:00pm 10.7 3.5 5.9 72 2.2 N 33 44 18 24 - - 0.0
24/12:30pm 10.5 4.3 6.3 75 2.0 N 28 39 15 21 - - 0.0
24/12:00pm 9.4 3.5 5.6 77 1.7 N 26 39 14 21 - - 0.0
24/11:30am 9.2 3.3 5.8 79 1.6 N 26 35 14 19 - - 0.0
24/11:00am 8.5 3.0 5.8 83 1.2 N 24 33 13 18 - - 0.0
24/10:30am 7.8 3.0 5.8 87 0.9 N 20 32 11 17 - - 0.0
24/10:00am 7.1 2.2 5.3 88 0.8 N 20 28 11 15 - - 0.0
24/09:30am 5.9 0.8 4.1 88 0.8 N 20 28 11 15 - - 0.0
24/09:00am 4.5 0.1 2.8 89 0.7 N 15 20 8 11 - - 0.2
24/08:30am 3.7 -0.8 2.4 91 0.5 NNE 15 20 8 11 - - 0.2
24/08:00am 2.9 -1.3 1.9 93 0.4 NNE 13 20 7 11 - - 0.2
24/07:30am 2.6 -1.2 1.7 94 0.4 NNE 11 17 6 9 - - 0.2
24/07:00am 2.8 -1.0 1.9 94 0.4 NNE 11 15 6 8 - - 0.2
24/06:30am 2.7 -1.1 2.0 95 0.3 N 11 13 6 7 - - 0.2
24/06:00am 2.4 -1.8 1.7 95 0.3 N 13 19 7 10 - - 0.0
24/05:30am 3.3 -0.7 2.6 95 0.3 N 13 17 7 9 - - 0.0
24/05:00am 2.9 -0.8 2.3 96 0.2 N 11 15 6 8 - - 0.0
24/04:30am 2.9 -0.4 2.3 96 0.2 N 9 11 5 6 - - 0.0
24/04:00am 3.3 0.0 2.7 96 0.2 N 9 13 5 7 - - 0.0
24/03:30am 3.3 0.4 2.7 96 0.2 N 7 11 4 6 - - 0.0
24/03:00am 3.3 0.6 2.7 96 0.2 NNW 6 9 3 5 - - 0.0
24/02:30am 3.6 0.4 3.2 97 0.2 N 9 13 5 7 - - 0.0
24/02:00am 2.1 -1.4 1.5 96 0.2 N 9 11 5 6 - - 0.0
24/01:30am 2.8 -0.9 2.2 96 0.2 N 11 13 6 7 - - 0.0
24/01:00am 2.4 -1.0 1.8 96 0.2 N 9 9 5 5 - - 0.0
24/12:30am 3.3 0.6 2.7 96 0.2 N 6 9 3 5 - - 0.0
24/12:00am 2.4 -0.6 1.8 96 0.2 NNW 7 9 4 5 - - 0.0
 
Date/Time
EST
Temp
°C
App
Temp
°C
Dew
Point
°C
Rel
Hum
%
Delta-T
°C
Wind Press
QNH
hPa
Press
MSL
hPa
Rain since
9am
mm
Dir  Spd
km/h
Gust
km/h
Spd
kts
Gust
kts
23/11:30pm 2.0 -1.1 1.3 95 0.3 NNW 7 9 4 5 - - 0.0
23/11:00pm 2.4 -1.4 1.7 95 0.3 NNW 11 13 6 7 - - 0.0
23/10:30pm 2.3 -1.1 1.6 95 0.3 NNW 9 13 5 7 - - 0.0
23/10:00pm 2.4 -1.1 1.5 94 0.3 NNW 9 11 5 6 - - 0.0
23/09:30pm 2.9 -0.5 1.9 93 0.4 NNW 9 11 5 6 - - 0.0
23/09:00pm 3.2 0.2 2.2 93 0.4 NW 7 9 4 5 - - 0.0
23/08:30pm 4.3 1.7 3.3 93 0.4 NW 6 9 3 5 - - 0.0
23/08:00pm 5.0 2.3 3.8 92 0.5 NW 7 7 4 4 - - 0.0
23/07:30pm 5.0 2.3 3.5 90 0.6 NW 7 9 4 5 - - 0.0
23/07:00pm 5.7 2.6 3.7 87 0.8 WNW 9 11 5 6 - - 0.0
23/06:30pm 6.8 3.7 3.8 81 1.3 WSW 9 15 5 8 - - 0.0
23/06:00pm 8.1 4.0 4.1 76 1.8 W 15 26 8 14 - - 0.0
23/05:30pm 8.3 4.6 4.3 76 1.8 W 13 20 7 11 - - 0.0
23/05:00pm 8.6 4.1 4.2 74 1.9 WNW 17 22 9 12 - - 0.0
23/04:30pm 8.8 3.2 3.2 68 2.4 W 22 30 12 16 - - 0.0
23/04:00pm 9.6 4.0 3.6 66 2.6 W 22 30 12 16 - - 0.0
23/03:30pm 10.2 5.0 3.5 63 2.9 W 20 28 11 15 - - 0.0
23/03:00pm 9.9 3.4 2.7 61 3.1 WSW 26 35 14 19 - - 0.0
23/02:30pm 10.1 4.3 2.5 59 3.3 W 22 33 12 18 - - 0.0
23/02:00pm 10.6 3.1 0.9 51 4.0 WSW 30 39 16 21 - - 0.0
23/01:30pm 10.5 4.9 3.3 61 3.2 SW 22 32 12 17 - - 0.0
23/01:00pm 10.0 3.1 2.8 61 3.1 WSW 28 37 15 20 - - 0.0
23/12:30pm 9.8 3.2 2.2 59 3.2 WSW 26 35 14 19 - - 0.0
23/12:00pm 9.5 2.6 2.6 62 3.0 WSW 28 35 15 19 - - 0.0
23/11:30am 9.2 2.8 3.4 67 2.5 WSW 26 43 14 23 - - 0.0
23/11:00am 8.7 1.3 2.1 63 2.8 WSW 30 44 16 24 - - 0.0
23/10:30am 8.6 2.9 2.8 67 2.5 WSW 22 32 12 17 - - 0.0
23/10:00am 7.8 0.9 2.3 68 2.3 WSW 28 39 15 21 - - 0.0
23/09:30am 7.2 1.5 2.9 74 1.8 W 22 32 12 17 - - 0.0
23/09:00am 6.3 1.7 3.5 82 1.2 W 17 20 9 11 - - 8.2
23/08:30am 5.6 0.9 3.4 86 0.9 W 17 22 9 12 - - 8.2
23/08:00am 5.1 0.5 3.6 90 0.6 W 17 24 9 13 - - 8.2
23/07:30am 5.3 0.7 3.8 90 0.6 W 17 24 9 13 - - 8.2
23/07:00am 5.5 1.3 3.8 89 0.7 W 15 20 8 11 - - 8.2
23/06:30am 6.1 1.2 4.3 88 0.8 WSW 19 28 10 15 - - 8.2
23/06:00am 6.7 0.9 4.2 84 1.1 WSW 24 32 13 17 - - 8.2
23/05:30am 7.3 0.8 4.6 83 1.2 WSW 28 44 15 24 - - 8.2
23/05:00am 7.3 0.9 5.1 86 1.0 WSW 28 39 15 21 - - 8.2
23/04:30am 7.0 2.2 5.5 90 0.7 W 20 30 11 16 - - 8.2
23/04:00am 7.0 2.7 5.3 89 0.8 W 17 24 9 13 - - 8.2
23/03:30am 7.1 1.9 5.4 89 0.8 WSW 22 30 12 16 - - 8.2
23/03:00am 7.3 0.6 5.4 88 0.9 W 30 41 16 22 - - 8.2
23/02:30am 7.3 0.1 5.0 85 1.0 WNW 32 41 17 22 - - 8.2
23/02:00am 7.6 -0.6 4.7 82 1.3 WNW 37 57 20 31 - - 8.2
23/01:30am 7.2 0.8 5.0 86 1.0 WNW 28 37 15 20 - - 8.2
23/01:00am 7.4 -0.4 4.7 83 1.2 WNW 35 56 19 30 - - 8.2
23/12:32am 7.7 0.2 4.3 79 1.5 WNW 33 57 18 31 - - 8.2
23/12:30am 7.6 0.3 4.4 80 1.4 WNW 32 43 17 23 - - 8.2
23/12:11am 7.9 1.2 5.4 84 1.1 NW 30 50 16 27 - - 8.2
23/12:00am 7.7 1.8 5.7 87 0.9 NW 26 33 14 18 - - 8.2
 
Date/Time
EST
Temp
°C
App
Temp
°C
Dew
Point
°C
Rel
Hum
%
Delta-T
°C
Wind Press
QNH
hPa
Press
MSL
hPa
Rain since
9am
mm
Dir  Spd
km/h
Gust
km/h
Spd
kts
Gust
kts
22/11:30pm 7.9 0.2 5.5 85 1.1 WNW 35 48 19 26 - - 8.2
22/11:13pm 8.2 0.1 5.3 82 1.3 WNW 37 57 20 31 - - 7.8
22/11:00pm 7.9 0.8 5.5 85 1.1 WNW 32 43 17 23 - - 7.8
22/10:30pm 7.8 -3.0 5.9 88 0.9 WNW 52 80 28 43 - - 7.8
22/10:27pm 7.8 -2.3 5.9 88 0.9 WNW 48 80 26 43 - - 7.8
22/10:25pm 8.3 -0.9 6.4 88 0.9 WNW 44 76 24 41 - - 7.6
22/10:23pm 8.5 0.3 6.6 88 0.9 WNW 39 63 21 34 - - 7.2
22/10:00pm 8.7 1.6 6.3 85 1.1 NW 33 52 18 28 - - 6.8
22/09:30pm 9.1 2.6 6.5 84 1.2 NW 30 43 16 23 - - 6.8
22/09:00pm 9.0 0.4 6.6 85 1.1 WNW 41 65 22 35 - - 6.8
22/08:39pm 9.9 3.2 7.2 83 1.3 WNW 32 54 17 29 - - 6.6
22/08:30pm 9.9 3.0 7.2 83 1.3 WNW 33 44 18 24 - - 6.6
22/08:00pm 9.6 5.3 7.9 89 0.8 NW 20 28 11 15 - - 6.6
22/07:30pm 9.7 3.9 7.8 88 0.9 NW 28 35 15 19 - - 6.6
22/07:00pm 9.8 4.4 8.1 89 0.8 NW 26 39 14 21 - - 6.4
22/06:32pm 10.6 6.2 8.9 89 0.8 W 22 52 12 28 - - 5.0
22/06:30pm 10.7 7.3 9.1 90 0.8 WNW 17 35 9 19 - - 4.8
22/06:00pm 10.9 7.9 9.3 90 0.8 NW 15 20 8 11 - - 4.8
22/05:30pm 10.9 7.8 8.8 87 1.0 NW 15 20 8 11 - - 4.8
22/05:00pm 11.4 6.5 8.6 83 1.4 WNW 24 32 13 17 - - 4.8
22/04:30pm 11.2 6.4 8.9 86 1.1 WNW 24 33 13 18 - - 4.8
22/04:00pm 10.9 5.8 9.2 89 0.9 W 26 35 14 19 - - 4.8
22/03:39pm 11.0 5.6 9.4 90 0.8 W 28 46 15 25 - - 4.4
22/03:30pm 11.4 8.2 9.8 90 0.8 WNW 17 26 9 14 - - 3.6
22/03:00pm 11.1 6.4 9.2 88 1.0 WNW 24 32 13 17 - - 3.2
22/02:32pm 10.9 4.1 9.3 90 0.8 W 35 54 19 29 - - 2.8
22/02:30pm 10.9 4.5 9.3 90 0.8 W 33 46 18 25 - - 2.8
22/02:00pm 11.4 4.6 7.7 78 1.8 W 33 67 18 36 - - 0.2
22/01:42pm 13.7 7.4 9.7 77 2.1 WNW 33 52 18 28 - - 0.0
22/01:30pm 14.0 7.3 9.6 75 2.3 NW 35 54 19 29 - - 0.0
22/01:02pm 14.8 9.3 10.6 76 2.2 NW 30 48 16 26 - - 0.0
22/01:00pm 14.4 8.9 10.6 78 2.0 NW 30 39 16 21 - - 0.0
22/12:30pm 13.9 7.7 10.1 78 2.0 NW 33 48 18 26 - - 0.0
22/12:00pm 14.2 7.3 10.4 78 2.0 NW 37 46 20 25 - - 0.0
22/11:30am 13.9 8.1 10.9 82 1.6 NW 32 43 17 23 - - 0.0
22/11:00am 13.5 8.5 11.0 85 1.3 NW 28 39 15 21 - - 0.0
22/10:30am 13.3 8.3 10.8 85 1.3 NW 28 41 15 22 - - 0.0
22/10:00am 13.1 8.9 11.0 87 1.1 NW 24 32 13 17 - - 0.0
22/09:30am 12.9 8.6 10.6 86 1.2 NW 24 32 13 17 - - 0.0
22/09:00am 12.9 9.1 11.0 88 1.0 NW 22 33 12 18 - - 9.8
22/08:30am 12.9 9.1 11.1 89 1.0 NW 22 28 12 15 - - 9.8
22/08:00am 12.9 9.6 11.5 91 0.7 NW 20 30 11 16 - - 9.6
22/07:30am 12.9 9.7 11.3 90 0.8 NW 19 26 10 14 - - 9.6
22/07:00am 13.0 9.8 11.2 89 1.0 NW 19 24 10 13 - - 9.4
22/06:30am 13.0 9.9 11.6 91 0.7 NNW 19 26 10 14 - - 9.4
22/06:00am 13.1 10.4 11.7 91 0.8 NW 17 24 9 13 - - 9.4
22/05:30am 13.2 10.5 11.8 91 0.8 NW 17 24 9 13 - - 9.4
22/05:00am 13.3 11.0 11.9 91 0.8 NW 15 20 8 11 - - 9.4
22/04:30am 13.5 11.1 12.7 95 0.4 WNW 17 24 9 13 - - 9.0
22/04:00am 13.4 10.1 12.9 97 0.3 W 22 32 12 17 - - 9.0
22/03:44am 13.5 7.8 12.9 96 0.3 WNW 35 59 19 32 - - 8.2
22/03:40am 14.8 9.9 13.8 94 0.6 NNW 32 56 17 30 - - 2.8
22/03:39am 15.7 11.6 14.9 95 0.5 NNW 30 54 16 29 - - 2.2
22/03:30am 15.8 12.1 15.0 95 0.5 NNW 28 41 15 22 - - 1.0
22/03:00am 15.4 11.2 14.6 95 0.5 NNW 30 41 16 22 - - 0.2
22/02:30am 15.6 10.4 14.5 93 0.6 N 35 48 19 26 - - 0.0
22/02:00am 15.6 10.7 14.3 92 0.7 N 33 44 18 24 - - 0.0
22/01:30am 15.5 9.4 14.2 92 0.7 N 39 52 21 28 - - 0.0
22/01:00am 15.3 10.0 14.2 93 0.6 N 35 46 19 25 - - 0.0
22/12:30am 15.1 10.0 13.6 91 0.8 N 33 43 18 23 - - 0.0
22/12:07am 15.3 10.2 13.7 90 0.9 N 33 52 18 28 - - 0.0
22/12:00am 15.2 10.3 13.6 90 0.9 N 32 43 17 23 - - 0.0
 
Date/Time
EST
Temp
°C
App
Temp
°C
Dew
Point
°C
Rel
Hum
%
Delta-T
°C
Wind Press
QNH
hPa
Press
MSL
hPa
Rain since
9am
mm
Dir  Spd
km/h
Gust
km/h
Spd
kts
Gust
kts
21/11:30pm 15.1 11.6 13.5 90 0.9 N 24 35 13 19 - - 0.0
21/11:00pm 15.0 11.8 13.2 89 1.0 N 22 33 12 18 - - 0.0

Other Formats:

Comma delimited format used in spreadsheet applications
http://www.bom.gov.au/fwo/IDV60801/IDV60801.95835.axf

JavaScript Object Notation format (JSON) in row-major order
http://www.bom.gov.au/fwo/IDV60801/IDV60801.95835.json